createdAt,value
2023-02-25T00:00:20.005Z,98096.00
2023-02-25T00:02:50.953Z,98103.00
2023-02-25T00:05:23.522Z,98081.00
2023-02-25T00:07:56.172Z,98083.00
2023-02-25T00:10:28.640Z,98088.00
2023-02-25T00:13:17.642Z,98092.00
2023-02-25T00:16:04.520Z,98089.00
2023-02-25T00:18:43.933Z,98085.00
2023-02-25T00:21:17.148Z,98097.00
2023-02-25T00:23:53.027Z,98106.00
2023-02-25T00:26:32.688Z,98100.00
2023-02-25T00:29:10.037Z,98107.00
2023-02-25T00:31:37.040Z,98124.00
2023-02-25T00:34:07.259Z,98129.00
2023-02-25T00:36:39.749Z,98111.00
2023-02-25T00:39:17.660Z,98114.00
2023-02-25T00:41:51.204Z,98104.00
2023-02-25T00:44:23.417Z,98109.00
2023-02-25T00:46:58.294Z,98109.00
2023-02-25T00:49:32.240Z,98112.00
2023-02-25T00:52:08.791Z,98101.00
2023-02-25T00:54:42.316Z,98102.00
2023-02-25T00:57:27.470Z,98084.00
2023-02-25T01:00:00.225Z,98090.00
2023-02-25T01:02:35.535Z,98101.00
2023-02-25T01:05:11.004Z,98112.00
2023-02-25T01:07:43.952Z,98110.00
2023-02-25T01:10:18.500Z,98111.00
2023-02-25T01:12:51.237Z,98112.00
2023-02-25T01:15:21.161Z,98112.00
2023-02-25T01:17:49.287Z,98116.00
2023-02-25T01:20:22.705Z,98132.00
2023-02-25T01:23:02.714Z,98130.00
2023-02-25T01:25:41.840Z,98147.00
2023-02-25T01:28:17.385Z,98153.00
2023-02-25T01:31:01.398Z,98120.00
2023-02-25T01:33:31.792Z,98085.00
2023-02-25T01:36:06.291Z,98078.00
2023-02-25T01:38:50.725Z,98084.00
2023-02-25T01:41:29.617Z,98080.00
2023-02-25T01:44:19.394Z,98120.00
2023-02-25T01:46:52.484Z,98138.00
2023-02-25T01:49:48.245Z,98153.00
2023-02-25T01:52:30.380Z,98170.00
2023-02-25T01:55:07.540Z,98156.00
2023-02-25T01:57:44.848Z,98158.00
2023-02-25T02:00:18.541Z,98154.00
2023-02-25T02:03:00.774Z,98165.00
2023-02-25T02:06:07.730Z,98158.00
2023-02-25T02:08:51.751Z,98162.00
2023-02-25T02:11:20.893Z,98159.00
2023-02-25T02:13:59.176Z,98156.00
2023-02-25T02:16:41.441Z,98161.00
2023-02-25T02:19:44.892Z,98156.00
2023-02-25T02:23:03.888Z,98163.00
2023-02-25T02:26:02.968Z,98163.00
2023-02-25T02:29:00.800Z,98150.00
2023-02-25T02:32:00.458Z,98157.00
2023-02-25T02:35:38.201Z,98158.00
2023-02-25T02:38:22.117Z,98164.00
2023-02-25T02:41:06.687Z,98167.00
2023-02-25T02:44:11.070Z,98161.00
2023-02-25T02:46:56.900Z,98179.00
2023-02-25T02:49:38.927Z,98167.00
2023-02-25T02:52:23.240Z,98164.00
2023-02-25T02:55:14.665Z,98166.00
2023-02-25T02:57:45.574Z,98168.00
2023-02-25T03:00:22.302Z,98163.00
2023-02-25T03:03:05.467Z,98162.00
2023-02-25T03:05:42.305Z,98175.00
2023-02-25T03:08:30.830Z,98169.00
2023-02-25T03:11:00.177Z,98164.00
2023-02-25T03:13:32.398Z,98169.00
2023-02-25T03:16:11.241Z,98161.00
2023-02-25T03:19:12.617Z,98184.00
2023-02-25T03:21:47.799Z,98171.00
2023-02-25T03:24:26.312Z,98187.00
2023-02-25T03:27:08.959Z,98179.00
2023-02-25T03:29:41.975Z,98170.00
2023-02-25T03:32:16.074Z,98180.00
2023-02-25T03:34:49.489Z,98167.00
2023-02-25T03:37:25.712Z,98185.00
2023-02-25T03:40:11.389Z,98181.00
2023-02-25T03:42:52.704Z,98175.00
2023-02-25T03:45:35.904Z,98168.00
2023-02-25T03:48:08.377Z,98159.00
2023-02-25T03:50:59.424Z,98179.00
2023-02-25T03:53:30.001Z,98184.00
2023-02-25T03:56:05.425Z,98181.00
2023-02-25T03:58:45.571Z,98181.00
2023-02-25T04:01:28.946Z,98180.00
2023-02-25T04:03:58.016Z,98177.00
2023-02-25T04:06:28.698Z,98179.00
2023-02-25T04:08:58.124Z,98181.00
2023-02-25T04:11:32.470Z,98181.00
2023-02-25T04:13:59.583Z,98187.00
2023-02-25T04:16:27.881Z,98191.00
2023-02-25T04:19:00.832Z,98202.00
2023-02-25T04:21:37.461Z,98196.00
2023-02-25T04:24:06.840Z,98195.00
2023-02-25T04:26:43.052Z,98192.00
2023-02-25T04:29:16.007Z,98193.00
2023-02-25T04:31:46.408Z,98186.00
2023-02-25T04:34:19.518Z,98197.00
2023-02-25T04:36:50.516Z,98194.00
2023-02-25T04:39:22.366Z,98194.00
2023-02-25T04:44:36.292Z,98210.00
2023-02-25T04:47:03.688Z,98200.00
2023-02-25T04:49:36.258Z,98199.00
2023-02-25T04:52:03.340Z,98206.00
2023-02-25T04:54:41.085Z,98216.00
2023-02-25T04:57:24.544Z,98200.00
2023-02-25T04:59:57.201Z,98209.00
2023-02-25T05:02:34.703Z,98211.00
2023-02-25T05:05:06.817Z,98208.00
2023-02-25T05:07:35.943Z,98205.00
2023-02-25T05:10:10.864Z,98201.00
2023-02-25T05:12:41.308Z,98217.00
2023-02-25T05:15:16.346Z,98212.00
2023-02-25T05:17:45.753Z,98214.00
2023-02-25T05:20:19.698Z,98209.00
2023-02-25T05:22:46.986Z,98219.00
2023-02-25T05:25:17.314Z,98232.00
2023-02-25T05:27:47.153Z,98223.00
2023-02-25T05:30:15.415Z,98215.00
2023-02-25T05:32:46.437Z,98223.00
2023-02-25T05:35:15.701Z,98225.00
2023-02-25T05:37:42.954Z,98232.00
2023-02-25T05:40:16.161Z,98225.00
2023-02-25T05:42:50.324Z,98232.00
2023-02-25T05:45:19.742Z,98234.00
2023-02-25T05:47:49.720Z,98229.00
2023-02-25T05:50:16.748Z,98238.00
2023-02-25T05:52:45.006Z,98247.00
2023-02-25T05:55:16.282Z,98248.00
2023-02-25T05:57:43.474Z,98249.00
2023-02-25T06:00:14.992Z,98249.00
2023-02-25T06:02:48.204Z,98242.00
2023-02-25T06:05:18.066Z,98243.00
2023-02-25T06:07:47.296Z,98245.00
2023-02-25T06:10:19.961Z,98239.00
2023-02-25T06:12:51.074Z,98228.00
2023-02-25T06:15:23.536Z,98250.00
2023-02-25T06:17:53.156Z,98248.00
2023-02-25T06:20:32.509Z,98231.00
2023-02-25T06:23:04.823Z,98229.00
2023-02-25T06:25:35.629Z,98228.00
2023-02-25T06:28:12.910Z,98236.00
2023-02-25T06:30:43.457Z,98232.00
2023-02-25T06:33:18.560Z,98244.00
2023-02-25T06:35:47.422Z,98241.00
2023-02-25T06:38:32.009Z,98248.00
2023-02-25T06:41:07.633Z,98253.00
2023-02-25T06:43:38.504Z,98274.00
2023-02-25T06:46:17.218Z,98267.00
2023-02-25T06:48:54.504Z,98293.00
2023-02-25T06:51:22.548Z,98285.00
2023-02-25T06:54:00.276Z,98302.00
2023-02-25T06:56:29.126Z,98302.00
2023-02-25T06:59:01.764Z,98299.00
2023-02-25T07:01:33.448Z,98295.00
2023-02-25T07:04:00.570Z,98293.00
2023-02-25T07:06:27.645Z,98304.00
2023-02-25T07:08:54.594Z,98305.00
2023-02-25T07:11:21.769Z,98305.00
2023-02-25T07:13:57.758Z,98299.00
2023-02-25T07:16:27.286Z,98303.00
2023-02-25T07:18:57.167Z,98310.00
2023-02-25T07:21:29.402Z,98315.00
2023-02-25T07:24:10.590Z,98315.00
2023-02-25T07:26:41.068Z,98322.00
2023-02-25T07:29:22.797Z,98313.00
2023-02-25T07:31:59.996Z,98319.00
2023-02-25T07:34:30.240Z,98317.00
2023-02-25T07:37:00.393Z,98329.00
2023-02-25T07:39:29.492Z,98324.00
2023-02-25T07:41:58.689Z,98323.00
2023-02-25T07:44:27.592Z,98324.00
2023-02-25T07:47:00.990Z,98309.00
2023-02-25T07:49:35.731Z,98317.00
2023-02-25T07:52:11.353Z,98319.00
2023-02-25T07:54:48.297Z,98307.00
2023-02-25T07:57:18.084Z,98314.00
2023-02-25T07:59:48.089Z,98318.00
2023-02-25T08:02:17.878Z,98313.00
2023-02-25T08:04:51.482Z,98320.00
2023-02-25T08:07:23.505Z,98320.00
2023-02-25T08:09:53.006Z,98310.00
2023-02-25T08:12:22.771Z,98300.00
2023-02-25T08:14:50.023Z,98297.00
2023-02-25T08:17:17.449Z,98307.00
2023-02-25T08:19:47.886Z,98301.00
2023-02-25T08:22:19.946Z,98307.00
2023-02-25T08:24:48.736Z,98315.00
2023-02-25T08:27:18.495Z,98314.00
2023-02-25T08:29:48.041Z,98307.00
2023-02-25T08:32:15.450Z,98331.00
2023-02-25T08:34:48.897Z,98311.00
2023-02-25T08:37:18.796Z,98313.00
2023-02-25T08:39:50.082Z,98312.00
2023-02-25T08:42:20.073Z,98304.00
2023-02-25T08:44:50.109Z,98308.00
2023-02-25T08:47:19.926Z,98306.00
2023-02-25T08:49:50.231Z,98298.00
2023-02-25T08:52:24.839Z,98294.00
2023-02-25T08:55:01.255Z,98293.00
2023-02-25T08:57:31.468Z,98295.00
2023-02-25T09:00:00.498Z,98298.00
2023-02-25T09:02:41.275Z,98308.00
2023-02-25T09:05:13.283Z,98296.00
2023-02-25T09:08:18.676Z,98295.00
2023-02-25T09:10:50.562Z,98300.00
2023-02-25T09:13:18.233Z,98295.00
2023-02-25T09:15:45.281Z,98294.00
2023-02-25T09:18:12.546Z,98282.00
2023-02-25T09:20:39.831Z,98282.00
2023-02-25T09:23:11.313Z,98280.00
2023-02-25T09:25:39.136Z,98272.00
2023-02-25T09:28:08.097Z,98282.00
2023-02-25T09:30:34.889Z,98280.00
2023-02-25T09:33:01.930Z,98288.00
2023-02-25T09:35:28.902Z,98278.00
2023-02-25T09:37:55.815Z,98274.00
2023-02-25T09:40:22.933Z,98287.00
2023-02-25T09:43:31.114Z,98280.00
2023-02-25T09:46:16.013Z,98285.00
2023-02-25T09:49:02.932Z,98279.00
2023-02-25T09:51:48.362Z,98279.00
2023-02-25T09:54:42.618Z,98285.00
2023-02-25T09:57:19.205Z,98284.00
2023-02-25T09:59:53.837Z,98272.00
2023-02-25T10:03:02.005Z,98267.00
2023-02-25T10:05:48.334Z,98282.00
2023-02-25T10:08:48.363Z,98275.00
2023-02-25T10:11:53.832Z,98272.00
2023-02-25T10:15:08.744Z,98286.00
2023-02-25T10:18:06.729Z,98269.00
2023-02-25T10:20:56.532Z,98265.00
2023-02-25T10:24:36.578Z,98267.00
2023-02-25T10:27:31.230Z,98262.00
2023-02-25T10:30:33.277Z,98269.00
2023-02-25T10:33:24.636Z,98262.00
2023-02-25T10:36:05.402Z,98265.00
2023-02-25T10:38:45.539Z,98272.00
2023-02-25T10:41:13.759Z,98266.00
2023-02-25T10:43:42.122Z,98260.00
2023-02-25T10:46:30.298Z,98261.00
2023-02-25T10:49:01.689Z,98254.00
2023-02-25T10:51:29.990Z,98253.00
2023-02-25T10:54:07.541Z,98256.00
2023-02-25T10:56:47.268Z,98247.00
2023-02-25T10:59:25.853Z,98250.00
2023-02-25T11:01:57.287Z,98246.00
2023-02-25T11:04:32.356Z,98241.00
2023-02-25T11:06:59.296Z,98247.00
2023-02-25T11:09:29.799Z,98242.00
2023-02-25T11:12:08.835Z,98244.00
2023-02-25T11:14:38.656Z,98243.00
2023-02-25T11:17:23.234Z,98238.00
2023-02-25T11:20:00.471Z,98235.00
2023-02-25T11:22:43.387Z,98242.00
2023-02-25T11:25:20.520Z,98236.00
2023-02-25T11:27:58.776Z,98245.00
2023-02-25T11:30:33.157Z,98247.00
2023-02-25T11:33:04.470Z,98251.00
2023-02-25T11:35:38.050Z,98245.00
2023-02-25T11:38:34.627Z,98244.00
2023-02-25T11:41:03.720Z,98241.00
2023-02-25T11:43:41.252Z,98243.00
2023-02-25T11:46:33.041Z,98242.00
2023-02-25T11:49:50.173Z,98241.00
2023-02-25T11:52:44.833Z,98241.00
2023-02-25T11:55:55.753Z,98246.00
2023-02-25T11:58:41.233Z,98249.00
2023-02-25T12:01:18.038Z,98252.00
2023-02-25T12:04:41.930Z,98253.00
2023-02-25T12:08:12.059Z,98249.00
2023-02-25T12:11:31.919Z,98235.00
2023-02-25T12:14:56.944Z,98220.00
2023-02-25T12:17:55.675Z,98226.00
2023-02-25T12:20:44.213Z,98224.00
2023-02-25T12:23:51.504Z,98215.00
2023-02-25T12:26:18.594Z,98227.00
2023-02-25T12:29:11.972Z,98225.00
2023-02-25T12:31:56.794Z,98209.00
2023-02-25T12:34:41.888Z,98213.00
2023-02-25T12:37:37.205Z,98228.00
2023-02-25T12:40:19.273Z,98228.00
2023-02-25T12:43:36.925Z,98234.00
2023-02-25T12:46:30.436Z,98233.00
2023-02-25T12:49:46.553Z,98238.00
2023-02-25T12:52:39.648Z,98228.00
2023-02-25T12:55:43.684Z,98233.00
2023-02-25T12:59:00.253Z,98226.00
2023-02-25T13:02:02.407Z,98220.00
2023-02-25T13:04:58.283Z,98220.00
2023-02-25T13:07:55.945Z,98213.00
2023-02-25T13:11:14.246Z,98217.00
2023-02-25T13:14:14.958Z,98219.00
2023-02-25T13:16:58.496Z,98216.00
2023-02-25T13:20:06.727Z,98225.00
2023-02-25T13:31:54.858Z,98224.00
2023-02-25T13:34:48.514Z,98214.00
2023-02-25T13:38:26.843Z,98220.00
2023-02-25T13:41:09.600Z,98202.00
2023-02-25T13:44:28.621Z,98206.00
2023-02-25T13:47:13.435Z,98206.00
2023-02-25T13:51:08.005Z,98202.00
2023-02-25T13:54:38.045Z,98212.00
2023-02-25T14:01:05.858Z,98212.00
2023-02-25T14:04:46.959Z,98210.00
2023-02-25T14:07:39.631Z,98196.00
2023-02-25T14:11:00.177Z,98205.00
2023-02-25T14:13:54.265Z,98215.00
2023-02-25T14:16:39.740Z,98198.00
2023-02-25T14:19:49.987Z,98197.00
2023-02-25T14:22:50.655Z,98197.00
2023-02-25T14:25:50.168Z,98212.00
2023-02-25T14:28:48.285Z,98198.00
2023-02-25T14:32:13.467Z,98207.00
2023-02-25T14:35:15.561Z,98204.00
2023-02-25T14:38:20.721Z,98195.00
2023-02-25T14:47:29.145Z,98193.00
2023-02-25T14:50:28.604Z,98199.00
2023-02-25T14:53:23.517Z,98190.00
2023-02-25T14:56:10.329Z,98199.00
2023-02-25T14:59:08.867Z,98196.00
2023-02-25T15:02:26.560Z,98202.00
2023-02-25T15:05:31.428Z,98201.00
2023-02-25T15:08:38.478Z,98204.00
2023-02-25T15:12:00.103Z,98205.00
2023-02-25T15:15:15.829Z,98217.00
2023-02-25T15:18:24.463Z,98217.00
2023-02-25T15:24:58.111Z,98216.00
2023-02-25T15:28:07.015Z,98225.00
2023-02-25T15:31:39.771Z,98221.00
2023-02-25T15:34:40.135Z,98224.00
2023-02-25T15:41:26.189Z,98221.00
2023-02-25T15:44:57.069Z,98226.00
2023-02-25T15:47:41.785Z,98219.00
2023-02-25T15:50:46.198Z,98235.00
2023-02-25T15:53:42.388Z,98241.00
2023-02-25T15:56:46.027Z,98234.00
2023-02-25T15:59:59.113Z,98238.00
2023-02-25T16:02:44.318Z,98223.00
2023-02-25T16:05:42.170Z,98218.00
2023-02-25T16:12:21.090Z,98222.00
2023-02-25T16:15:27.339Z,98217.00
2023-02-25T16:18:09.687Z,98221.00
2023-02-25T16:21:12.001Z,98240.00
2023-02-25T16:24:01.484Z,98239.00
2023-02-25T16:27:09.368Z,98250.00
2023-02-25T16:30:04.843Z,98238.00
2023-02-25T16:33:24.309Z,98258.00
2023-02-25T16:36:40.891Z,98254.00
2023-02-25T16:39:30.328Z,98261.00
2023-02-25T16:42:16.619Z,98266.00
2023-02-25T16:48:22.694Z,98256.00
2023-02-25T16:51:08.800Z,98252.00
2023-02-25T16:54:23.013Z,98252.00
2023-02-25T16:59:55.831Z,98262.00
2023-02-25T17:03:06.680Z,98265.00
2023-02-25T17:08:37.255Z,98278.00
2023-02-25T17:11:29.858Z,98271.00
2023-02-25T17:18:00.000Z,98288.00
2023-02-25T17:20:48.959Z,98289.00
2023-02-25T17:23:47.621Z,98292.00
2023-02-25T17:26:37.180Z,98280.00
2023-02-25T17:29:17.876Z,98289.00
2023-02-25T17:32:18.408Z,98287.00
2023-02-25T17:35:02.891Z,98294.00
2023-02-25T17:41:04.670Z,98288.00
2023-02-25T17:43:52.268Z,98293.00
2023-02-25T17:50:35.374Z,98296.00
2023-02-25T17:53:16.269Z,98299.00
2023-02-25T17:56:07.022Z,98319.00
2023-02-25T17:59:21.467Z,98316.00
2023-02-25T18:02:41.988Z,98316.00
2023-02-25T18:05:26.639Z,98325.00
2023-02-25T18:08:29.206Z,98341.00
2023-02-25T18:14:59.333Z,98341.00
2023-02-25T18:17:55.680Z,98343.00
2023-02-25T18:26:59.735Z,98339.00
2023-02-25T18:29:51.011Z,98337.00
2023-02-25T18:32:42.197Z,98338.00
2023-02-25T18:35:22.797Z,98341.00
2023-02-25T18:38:11.780Z,98340.00
2023-02-25T18:40:50.683Z,98343.00
2023-02-25T18:43:42.040Z,98358.00
2023-02-25T18:46:44.993Z,98356.00
2023-02-25T18:49:35.389Z,98350.00
2023-02-25T18:52:11.632Z,98353.00
2023-02-25T18:54:57.171Z,98354.00
2023-02-25T18:57:33.510Z,98366.00
2023-02-25T19:00:19.532Z,98375.00
2023-02-25T19:03:11.434Z,98371.00
2023-02-25T19:05:51.114Z,98376.00
2023-02-25T19:08:51.240Z,98368.00
2023-02-25T19:14:39.852Z,98376.00
2023-02-25T19:17:21.873Z,98382.00
2023-02-25T19:20:00.529Z,98370.00
2023-02-25T19:22:46.078Z,98378.00
2023-02-25T19:25:46.013Z,98384.00
2023-02-25T19:28:28.673Z,98386.00
2023-02-25T19:31:07.029Z,98385.00
2023-02-25T19:33:35.362Z,98402.00
2023-02-25T19:36:04.988Z,98402.00
2023-02-25T19:38:31.988Z,98404.00
2023-02-25T19:41:06.463Z,98412.00
2023-02-25T19:43:34.454Z,98401.00
2023-02-25T19:46:05.198Z,98419.00
2023-02-25T19:48:32.036Z,98416.00
2023-02-25T19:50:58.881Z,98423.00
2023-02-25T19:53:32.570Z,98420.00
2023-02-25T19:56:03.196Z,98424.00
2023-02-25T19:58:32.065Z,98427.00
2023-02-25T20:01:08.327Z,98429.00
2023-02-25T20:03:38.389Z,98445.00
2023-02-25T20:06:22.123Z,98440.00
2023-02-25T20:08:53.695Z,98452.00
2023-02-25T20:11:23.501Z,98448.00
2023-02-25T20:13:50.576Z,98457.00
2023-02-25T20:16:17.568Z,98456.00
2023-02-25T20:18:49.344Z,98460.00
2023-02-25T20:21:17.110Z,98453.00
2023-02-25T20:23:43.992Z,98456.00
2023-02-25T20:26:15.248Z,98472.00
2023-02-25T20:28:42.392Z,98466.00
2023-02-25T20:31:13.235Z,98467.00
2023-02-25T20:33:40.911Z,98467.00
2023-02-25T20:36:27.554Z,98484.00
2023-02-25T20:39:12.753Z,98479.00
2023-02-25T20:41:42.097Z,98497.00
2023-02-25T20:44:10.248Z,98504.00
2023-02-25T20:46:38.422Z,98496.00
2023-02-25T20:49:06.274Z,98503.00
2023-02-25T20:51:34.642Z,98513.00
2023-02-25T20:54:03.725Z,98509.00
2023-02-25T20:56:34.338Z,98525.00
2023-02-25T20:59:01.437Z,98520.00
2023-02-25T21:01:28.806Z,98522.00
2023-02-25T21:03:55.849Z,98518.00
2023-02-25T21:06:25.585Z,98519.00
2023-02-25T21:08:54.335Z,98523.00
2023-02-25T21:11:24.401Z,98536.00
2023-02-25T21:13:52.984Z,98520.00
2023-02-25T21:16:21.509Z,98527.00
2023-02-25T21:18:49.689Z,98525.00
2023-02-25T21:21:20.521Z,98531.00
2023-02-25T21:23:49.310Z,98541.00
2023-02-25T21:26:16.542Z,98541.00
2023-02-25T21:28:43.681Z,98544.00
2023-02-25T21:31:16.104Z,98552.00
2023-02-25T21:33:43.103Z,98550.00
2023-02-25T21:36:11.036Z,98560.00
2023-02-25T21:38:40.653Z,98568.00
2023-02-25T21:41:13.783Z,98565.00
2023-02-25T21:43:42.450Z,98566.00
2023-02-25T21:46:16.143Z,98572.00
2023-02-25T21:48:44.654Z,98565.00
2023-02-25T21:51:21.591Z,98571.00
2023-02-25T21:53:49.419Z,98582.00
2023-02-25T21:56:17.779Z,98577.00
2023-02-25T21:58:45.485Z,98573.00
2023-02-25T22:01:26.410Z,98589.00
2023-02-25T22:03:53.828Z,98588.00
2023-02-25T22:06:24.736Z,98585.00
2023-02-25T22:08:53.363Z,98594.00
2023-02-25T22:11:24.568Z,98595.00
2023-02-25T22:13:52.709Z,98588.00
2023-02-25T22:16:21.156Z,98591.00
2023-02-25T22:18:48.987Z,98586.00
2023-02-25T22:21:32.310Z,98605.00
2023-02-25T22:24:02.230Z,98591.00
2023-02-25T22:26:33.173Z,98597.00
2023-02-25T22:29:04.835Z,98594.00
2023-02-25T22:31:34.053Z,98607.00
2023-02-25T22:34:02.400Z,98591.00
2023-02-25T22:36:29.575Z,98604.00
2023-02-25T22:38:56.606Z,98595.00
2023-02-25T22:41:27.923Z,98606.00
2023-02-25T22:43:55.490Z,98608.00
2023-02-25T22:46:31.465Z,98613.00
2023-02-25T22:48:59.455Z,98609.00
2023-02-25T22:51:34.314Z,98619.00
2023-02-25T22:54:02.155Z,98617.00
2023-02-25T22:56:29.078Z,98617.00
2023-02-25T22:58:56.886Z,98613.00
2023-02-25T23:01:25.642Z,98615.00
2023-02-25T23:03:54.934Z,98622.00
2023-02-25T23:06:45.746Z,98620.00
2023-02-25T23:09:14.419Z,98617.00
2023-02-25T23:11:46.604Z,98618.00
2023-02-25T23:14:15.021Z,98618.00
2023-02-25T23:16:48.585Z,98610.00
2023-02-25T23:19:18.307Z,98611.00
2023-02-25T23:21:48.375Z,98629.00
2023-02-25T23:24:18.666Z,98605.00
2023-02-25T23:26:50.366Z,98622.00
2023-02-25T23:29:17.581Z,98622.00
2023-02-25T23:31:49.983Z,98636.00
2023-02-25T23:34:23.519Z,98624.00
2023-02-25T23:36:51.003Z,98629.00
2023-02-25T23:39:18.366Z,98629.00
2023-02-25T23:41:45.569Z,98625.00
2023-02-25T23:44:13.857Z,98638.00
2023-02-25T23:46:43.100Z,98639.00
2023-02-25T23:49:12.979Z,98649.00
2023-02-25T23:51:47.147Z,98639.00
2023-02-25T23:54:17.644Z,98646.00
2023-02-25T23:56:44.916Z,98643.00
2023-02-25T23:59:12.402Z,98648.00
